sensor_id;sensor_type;location;lat;lon;timestamp;P1;durP1;ratioP1;P2;durP2;ratioP2
22665;SDS011;11499;49.486;11.104;2023-03-15T00:01:21;0.10;;;0.10;;
22665;SDS011;11499;49.486;11.104;2023-03-15T00:03:48;0.10;;;0.10;;
22665;SDS011;11499;49.486;11.104;2023-03-15T00:06:13;0.10;;;0.10;;
22665;SDS011;11499;49.486;11.104;2023-03-15T00:08:39;0.10;;;0.10;;
22665;SDS011;11499;49.486;11.104;2023-03-15T00:11:05;0.00;;;0.00;;
22665;SDS011;11499;49.486;11.104;2023-03-15T00:16:33;0.10;;;0.10;;
22665;SDS011;11499;49.486;11.104;2023-03-15T00:18:58;0.10;;;0.10;;
22665;SDS011;11499;49.486;11.104;2023-03-15T00:21:24;0.10;;;0.10;;
22665;SDS011;11499;49.486;11.104;2023-03-15T00:23:50;0.10;;;0.10;;
22665;SDS011;11499;49.486;11.104;2023-03-15T00:26:15;0.00;;;0.00;;
22665;SDS011;11499;49.486;11.104;2023-03-15T00:28:41;0.10;;;0.10;;
22665;SDS011;11499;49.486;11.104;2023-03-15T00:31:08;0.10;;;0.10;;
22665;SDS011;11499;49.486;11.104;2023-03-15T00:33:41;0.10;;;0.10;;
22665;SDS011;11499;49.486;11.104;2023-03-15T00:36:07;0.10;;;0.10;;
22665;SDS011;11499;49.486;11.104;2023-03-15T00:38:34;0.10;;;0.10;;
22665;SDS011;11499;49.486;11.104;2023-03-15T00:44:10;0.10;;;0.10;;
22665;SDS011;11499;49.486;11.104;2023-03-15T00:46:36;0.10;;;0.10;;
22665;SDS011;11499;49.486;11.104;2023-03-15T00:49:01;0.10;;;0.10;;
22665;SDS011;11499;49.486;11.104;2023-03-15T00:51:27;0.83;;;0.77;;
22665;SDS011;11499;49.486;11.104;2023-03-15T00:53:52;0.10;;;0.10;;
22665;SDS011;11499;49.486;11.104;2023-03-15T00:56:19;0.10;;;0.10;;
22665;SDS011;11499;49.486;11.104;2023-03-15T00:58:46;0.10;;;0.10;;
22665;SDS011;11499;49.486;11.104;2023-03-15T01:01:13;0.10;;;0.10;;
22665;SDS011;11499;49.486;11.104;2023-03-15T01:03:45;0.10;;;0.10;;
22665;SDS011;11499;49.486;11.104;2023-03-15T01:06:14;0.10;;;0.10;;
22665;SDS011;11499;49.486;11.104;2023-03-15T01:11:21;0.10;;;0.10;;
22665;SDS011;11499;49.486;11.104;2023-03-15T01:13:49;0.10;;;0.10;;
22665;SDS011;11499;49.486;11.104;2023-03-15T01:16:16;0.10;;;0.10;;
22665;SDS011;11499;49.486;11.104;2023-03-15T01:18:42;0.00;;;0.00;;
22665;SDS011;11499;49.486;11.104;2023-03-15T01:21:09;0.10;;;0.10;;
22665;SDS011;11499;49.486;11.104;2023-03-15T01:23:36;0.20;;;0.20;;
22665;SDS011;11499;49.486;11.104;2023-03-15T01:26:02;0.10;;;0.10;;
22665;SDS011;11499;49.486;11.104;2023-03-15T01:28:29;0.10;;;0.10;;
22665;SDS011;11499;49.486;11.104;2023-03-15T01:30:55;0.10;;;0.10;;
22665;SDS011;11499;49.486;11.104;2023-03-15T01:33:21;0.10;;;0.10;;
22665;SDS011;11499;49.486;11.104;2023-03-15T01:38:20;0.10;;;0.10;;
22665;SDS011;11499;49.486;11.104;2023-03-15T01:40:46;0.10;;;0.10;;
22665;SDS011;11499;49.486;11.104;2023-03-15T01:43:18;0.53;;;0.53;;
22665;SDS011;11499;49.486;11.104;2023-03-15T01:45:52;0.10;;;0.10;;
22665;SDS011;11499;49.486;11.104;2023-03-15T01:48:53;0.00;;;0.00;;
22665;SDS011;11499;49.486;11.104;2023-03-15T01:51:27;0.00;;;0.00;;
22665;SDS011;11499;49.486;11.104;2023-03-15T01:53:59;0.10;;;0.10;;
22665;SDS011;11499;49.486;11.104;2023-03-15T01:56:30;0.10;;;0.10;;
22665;SDS011;11499;49.486;11.104;2023-03-15T01:58:59;0.00;;;0.00;;
22665;SDS011;11499;49.486;11.104;2023-03-15T02:01:27;0.10;;;0.10;;
22665;SDS011;11499;49.486;11.104;2023-03-15T02:06:44;0.20;;;0.20;;
22665;SDS011;11499;49.486;11.104;2023-03-15T02:09:13;0.10;;;0.10;;
22665;SDS011;11499;49.486;11.104;2023-03-15T02:11:41;0.10;;;0.10;;
22665;SDS011;11499;49.486;11.104;2023-03-15T02:14:08;0.10;;;0.10;;
22665;SDS011;11499;49.486;11.104;2023-03-15T02:16:36;0.10;;;0.10;;
22665;SDS011;11499;49.486;11.104;2023-03-15T02:19:03;0.10;;;0.10;;
22665;SDS011;11499;49.486;11.104;2023-03-15T02:21:41;0.10;;;0.10;;
22665;SDS011;11499;49.486;11.104;2023-03-15T02:26:50;0.10;;;0.10;;
22665;SDS011;11499;49.486;11.104;2023-03-15T02:29:19;0.03;;;0.03;;
22665;SDS011;11499;49.486;11.104;2023-03-15T02:33:59;0.10;;;0.10;;
22665;SDS011;11499;49.486;11.104;2023-03-15T02:36:25;0.10;;;0.10;;
22665;SDS011;11499;49.486;11.104;2023-03-15T02:38:53;0.10;;;0.10;;
22665;SDS011;11499;49.486;11.104;2023-03-15T02:41:20;0.10;;;0.10;;
22665;SDS011;11499;49.486;11.104;2023-03-15T02:44:01;0.10;;;0.10;;
22665;SDS011;11499;49.486;11.104;2023-03-15T02:46:30;0.10;;;0.10;;
22665;SDS011;11499;49.486;11.104;2023-03-15T02:48:56;0.10;;;0.10;;
22665;SDS011;11499;49.486;11.104;2023-03-15T02:51:25;0.10;;;0.10;;
22665;SDS011;11499;49.486;11.104;2023-03-15T02:53:52;0.10;;;0.10;;
22665;SDS011;11499;49.486;11.104;2023-03-15T02:56:18;0.10;;;0.10;;
22665;SDS011;11499;49.486;11.104;2023-03-15T02:58:44;0.10;;;0.10;;
22665;SDS011;11499;49.486;11.104;2023-03-15T03:01:10;0.60;;;0.60;;
22665;SDS011;11499;49.486;11.104;2023-03-15T03:06:11;0.10;;;0.10;;
22665;SDS011;11499;49.486;11.104;2023-03-15T03:08:38;0.10;;;0.10;;
22665;SDS011;11499;49.486;11.104;2023-03-15T03:11:04;0.10;;;0.10;;
22665;SDS011;11499;49.486;11.104;2023-03-15T03:13:30;0.10;;;0.10;;
22665;SDS011;11499;49.486;11.104;2023-03-15T03:15:56;0.00;;;0.00;;
22665;SDS011;11499;49.486;11.104;2023-03-15T03:18:25;0.17;;;0.17;;
22665;SDS011;11499;49.486;11.104;2023-03-15T03:20:54;0.10;;;0.10;;
22665;SDS011;11499;49.486;11.104;2023-03-15T03:23:21;0.10;;;0.10;;
22665;SDS011;11499;49.486;11.104;2023-03-15T03:25:49;0.03;;;0.03;;
22665;SDS011;11499;49.486;11.104;2023-03-15T03:28:19;0.10;;;0.10;;
22665;SDS011;11499;49.486;11.104;2023-03-15T03:33:38;0.10;;;0.10;;
22665;SDS011;11499;49.486;11.104;2023-03-15T03:36:03;0.10;;;0.10;;
22665;SDS011;11499;49.486;11.104;2023-03-15T03:38:29;0.10;;;0.10;;
22665;SDS011;11499;49.486;11.104;2023-03-15T03:40:55;0.10;;;0.10;;
22665;SDS011;11499;49.486;11.104;2023-03-15T03:43:20;0.10;;;0.10;;
22665;SDS011;11499;49.486;11.104;2023-03-15T03:45:46;0.10;;;0.10;;
22665;SDS011;11499;49.486;11.104;2023-03-15T03:48:11;0.10;;;0.10;;
22665;SDS011;11499;49.486;11.104;2023-03-15T03:50:37;0.10;;;0.10;;
22665;SDS011;11499;49.486;11.104;2023-03-15T03:53:02;0.10;;;0.10;;
22665;SDS011;11499;49.486;11.104;2023-03-15T03:55:28;0.10;;;0.10;;
22665;SDS011;11499;49.486;11.104;2023-03-15T04:00:37;0.00;;;0.00;;
22665;SDS011;11499;49.486;11.104;2023-03-15T04:03:03;0.10;;;0.10;;
22665;SDS011;11499;49.486;11.104;2023-03-15T04:05:29;0.10;;;0.10;;
22665;SDS011;11499;49.486;11.104;2023-03-15T04:07:55;0.10;;;0.10;;
22665;SDS011;11499;49.486;11.104;2023-03-15T04:10:20;0.10;;;0.10;;
22665;SDS011;11499;49.486;11.104;2023-03-15T04:12:51;0.10;;;0.10;;
22665;SDS011;11499;49.486;11.104;2023-03-15T04:15:21;0.10;;;0.10;;
22665;SDS011;11499;49.486;11.104;2023-03-15T04:17:47;0.10;;;0.10;;
22665;SDS011;11499;49.486;11.104;2023-03-15T04:20:14;0.10;;;0.10;;
22665;SDS011;11499;49.486;11.104;2023-03-15T04:22:41;0.10;;;0.10;;
22665;SDS011;11499;49.486;11.104;2023-03-15T04:27:53;0.10;;;0.10;;
22665;SDS011;11499;49.486;11.104;2023-03-15T04:30:27;0.10;;;0.10;;
22665;SDS011;11499;49.486;11.104;2023-03-15T04:32:54;0.10;;;0.10;;
22665;SDS011;11499;49.486;11.104;2023-03-15T04:35:25;0.10;;;0.10;;
22665;SDS011;11499;49.486;11.104;2023-03-15T04:37:52;0.10;;;0.10;;
22665;SDS011;11499;49.486;11.104;2023-03-15T04:40:18;0.00;;;0.00;;
22665;SDS011;11499;49.486;11.104;2023-03-15T04:42:44;0.10;;;0.10;;
22665;SDS011;11499;49.486;11.104;2023-03-15T04:45:09;0.10;;;0.10;;
22665;SDS011;11499;49.486;11.104;2023-03-15T04:47:35;0.10;;;0.10;;
22665;SDS011;11499;49.486;11.104;2023-03-15T04:50:01;0.10;;;0.10;;
22665;SDS011;11499;49.486;11.104;2023-03-15T04:55:10;0.10;;;0.10;;
22665;SDS011;11499;49.486;11.104;2023-03-15T04:57:36;0.10;;;0.10;;
22665;SDS011;11499;49.486;11.104;2023-03-15T05:00:02;0.10;;;0.10;;
22665;SDS011;11499;49.486;11.104;2023-03-15T05:02:32;0.10;;;0.10;;
22665;SDS011;11499;49.486;11.104;2023-03-15T05:04:58;0.10;;;0.10;;
22665;SDS011;11499;49.486;11.104;2023-03-15T05:07:24;0.07;;;0.07;;
22665;SDS011;11499;49.486;11.104;2023-03-15T05:09:49;0.00;;;0.00;;
22665;SDS011;11499;49.486;11.104;2023-03-15T05:12:15;0.10;;;0.10;;
22665;SDS011;11499;49.486;11.104;2023-03-15T05:14:40;0.10;;;0.10;;
22665;SDS011;11499;49.486;11.104;2023-03-15T05:17:06;0.10;;;0.10;;
22665;SDS011;11499;49.486;11.104;2023-03-15T05:22:10;0.10;;;0.10;;
22665;SDS011;11499;49.486;11.104;2023-03-15T05:24:36;0.10;;;0.10;;
22665;SDS011;11499;49.486;11.104;2023-03-15T05:27:01;0.10;;;0.10;;
22665;SDS011;11499;49.486;11.104;2023-03-15T05:29:28;0.10;;;0.10;;
22665;SDS011;11499;49.486;11.104;2023-03-15T05:31:53;0.30;;;0.30;;
22665;SDS011;11499;49.486;11.104;2023-03-15T05:34:19;0.00;;;0.00;;
22665;SDS011;11499;49.486;11.104;2023-03-15T05:36:48;0.10;;;0.10;;
22665;SDS011;11499;49.486;11.104;2023-03-15T05:39:16;0.10;;;0.10;;
22665;SDS011;11499;49.486;11.104;2023-03-15T05:41:42;0.00;;;0.00;;
22665;SDS011;11499;49.486;11.104;2023-03-15T05:44:08;4.47;;;4.20;;
22665;SDS011;11499;49.486;11.104;2023-03-15T05:48:02;0.10;;;0.10;;
22665;SDS011;11499;49.486;11.104;2023-03-15T05:50:28;0.10;;;0.10;;
22665;SDS011;11499;49.486;11.104;2023-03-15T05:52:54;0.10;;;0.10;;
22665;SDS011;11499;49.486;11.104;2023-03-15T05:55:21;0.10;;;0.10;;
22665;SDS011;11499;49.486;11.104;2023-03-15T05:57:46;0.10;;;0.10;;
22665;SDS011;11499;49.486;11.104;2023-03-15T06:00:12;0.10;;;0.10;;
22665;SDS011;11499;49.486;11.104;2023-03-15T06:02:39;0.10;;;0.10;;
22665;SDS011;11499;49.486;11.104;2023-03-15T06:05:05;0.10;;;0.10;;
22665;SDS011;11499;49.486;11.104;2023-03-15T06:07:31;0.00;;;0.00;;
22665;SDS011;11499;49.486;11.104;2023-03-15T06:13:00;0.10;;;0.10;;
22665;SDS011;11499;49.486;11.104;2023-03-15T06:15:25;0.10;;;0.10;;
22665;SDS011;11499;49.486;11.104;2023-03-15T06:17:51;0.10;;;0.10;;
22665;SDS011;11499;49.486;11.104;2023-03-15T06:20:17;0.10;;;0.10;;
22665;SDS011;11499;49.486;11.104;2023-03-15T06:22:43;0.10;;;0.10;;
22665;SDS011;11499;49.486;11.104;2023-03-15T06:25:09;0.10;;;0.10;;
22665;SDS011;11499;49.486;11.104;2023-03-15T06:27:36;0.10;;;0.10;;
22665;SDS011;11499;49.486;11.104;2023-03-15T06:30:02;0.10;;;0.10;;
22665;SDS011;11499;49.486;11.104;2023-03-15T06:32:28;0.10;;;0.10;;
22665;SDS011;11499;49.486;11.104;2023-03-15T06:37:48;0.10;;;0.10;;
22665;SDS011;11499;49.486;11.104;2023-03-15T06:40:13;0.10;;;0.10;;
22665;SDS011;11499;49.486;11.104;2023-03-15T06:42:39;0.10;;;0.10;;
22665;SDS011;11499;49.486;11.104;2023-03-15T06:45:06;0.10;;;0.10;;
22665;SDS011;11499;49.486;11.104;2023-03-15T06:47:32;0.10;;;0.10;;
22665;SDS011;11499;49.486;11.104;2023-03-15T06:49:58;0.00;;;0.00;;
22665;SDS011;11499;49.486;11.104;2023-03-15T06:52:23;0.10;;;0.10;;
22665;SDS011;11499;49.486;11.104;2023-03-15T06:54:49;0.10;;;0.10;;
22665;SDS011;11499;49.486;11.104;2023-03-15T06:57:14;0.10;;;0.10;;
22665;SDS011;11499;49.486;11.104;2023-03-15T06:59:40;0.10;;;0.10;;
22665;SDS011;11499;49.486;11.104;2023-03-15T07:04:30;0.00;;;0.00;;
22665;SDS011;11499;49.486;11.104;2023-03-15T07:06:56;0.10;;;0.10;;
22665;SDS011;11499;49.486;11.104;2023-03-15T07:09:21;0.10;;;0.10;;
22665;SDS011;11499;49.486;11.104;2023-03-15T07:11:47;0.00;;;0.00;;
22665;SDS011;11499;49.486;11.104;2023-03-15T07:14:12;0.10;;;0.10;;
22665;SDS011;11499;49.486;11.104;2023-03-15T07:16:38;0.10;;;0.10;;
22665;SDS011;11499;49.486;11.104;2023-03-15T07:19:03;0.10;;;0.10;;
22665;SDS011;11499;49.486;11.104;2023-03-15T07:21:29;0.07;;;0.07;;
22665;SDS011;11499;49.486;11.104;2023-03-15T07:23:54;0.10;;;0.10;;
22665;SDS011;11499;49.486;11.104;2023-03-15T07:26:20;0.10;;;0.10;;
22665;SDS011;11499;49.486;11.104;2023-03-15T07:31:04;0.00;;;0.00;;
22665;SDS011;11499;49.486;11.104;2023-03-15T07:33:30;0.10;;;0.10;;
22665;SDS011;11499;49.486;11.104;2023-03-15T07:35:57;0.10;;;0.10;;
22665;SDS011;11499;49.486;11.104;2023-03-15T07:38:24;0.10;;;0.10;;
22665;SDS011;11499;49.486;11.104;2023-03-15T07:40:52;0.10;;;0.10;;
22665;SDS011;11499;49.486;11.104;2023-03-15T07:43:18;0.10;;;0.10;;
22665;SDS011;11499;49.486;11.104;2023-03-15T07:45:44;0.10;;;0.10;;
22665;SDS011;11499;49.486;11.104;2023-03-15T07:48:10;0.10;;;0.10;;
22665;SDS011;11499;49.486;11.104;2023-03-15T07:50:36;0.10;;;0.10;;
22665;SDS011;11499;49.486;11.104;2023-03-15T07:53:02;0.10;;;0.10;;
22665;SDS011;11499;49.486;11.104;2023-03-15T07:55:28;0.10;;;0.10;;
22665;SDS011;11499;49.486;11.104;2023-03-15T08:01:18;0.10;;;0.10;;
22665;SDS011;11499;49.486;11.104;2023-03-15T08:03:43;0.20;;;0.20;;
22665;SDS011;11499;49.486;11.104;2023-03-15T08:06:09;0.10;;;0.10;;
22665;SDS011;11499;49.486;11.104;2023-03-15T08:08:34;2.10;;;1.27;;
22665;SDS011;11499;49.486;11.104;2023-03-15T08:11:00;8.50;;;4.60;;
22665;SDS011;11499;49.486;11.104;2023-03-15T08:13:25;9.00;;;5.20;;
22665;SDS011;11499;49.486;11.104;2023-03-15T08:15:51;7.27;;;4.10;;
22665;SDS011;11499;49.486;11.104;2023-03-15T08:18:16;7.70;;;3.80;;
22665;SDS011;11499;49.486;11.104;2023-03-15T08:20:42;7.83;;;3.73;;
22665;SDS011;11499;49.486;11.104;2023-03-15T08:23:07;6.73;;;3.73;;
22665;SDS011;11499;49.486;11.104;2023-03-15T08:28:12;7.90;;;3.80;;
22665;SDS011;11499;49.486;11.104;2023-03-15T08:30:38;6.90;;;3.30;;
22665;SDS011;11499;49.486;11.104;2023-03-15T08:33:04;7.30;;;3.70;;
22665;SDS011;11499;49.486;11.104;2023-03-15T08:35:31;8.13;;;3.20;;
22665;SDS011;11499;49.486;11.104;2023-03-15T08:37:58;5.10;;;3.33;;
22665;SDS011;11499;49.486;11.104;2023-03-15T08:40:29;5.40;;;3.60;;
22665;SDS011;11499;49.486;11.104;2023-03-15T08:42:55;3.87;;;3.00;;
22665;SDS011;11499;49.486;11.104;2023-03-15T08:45:22;9.47;;;3.47;;
22665;SDS011;11499;49.486;11.104;2023-03-15T08:47:49;7.07;;;2.97;;
22665;SDS011;11499;49.486;11.104;2023-03-15T08:50:19;7.87;;;2.83;;
22665;SDS011;11499;49.486;11.104;2023-03-15T08:54:38;4.43;;;2.70;;
22665;SDS011;11499;49.486;11.104;2023-03-15T08:57:04;4.73;;;2.60;;
22665;SDS011;11499;49.486;11.104;2023-03-15T08:59:29;6.33;;;3.20;;
22665;SDS011;11499;49.486;11.104;2023-03-15T09:01:57;6.77;;;2.30;;
22665;SDS011;11499;49.486;11.104;2023-03-15T09:04:24;5.90;;;2.53;;
22665;SDS011;11499;49.486;11.104;2023-03-15T09:06:49;5.63;;;2.57;;
22665;SDS011;11499;49.486;11.104;2023-03-15T09:09:15;7.13;;;2.57;;
22665;SDS011;11499;49.486;11.104;2023-03-15T09:11:41;6.07;;;2.80;;
22665;SDS011;11499;49.486;11.104;2023-03-15T09:14:07;7.57;;;3.40;;
22665;SDS011;11499;49.486;11.104;2023-03-15T09:16:32;9.13;;;4.40;;
22665;SDS011;11499;49.486;11.104;2023-03-15T09:20:50;5.40;;;2.37;;
22665;SDS011;11499;49.486;11.104;2023-03-15T09:23:16;11.97;;;3.10;;
22665;SDS011;11499;49.486;11.104;2023-03-15T09:25:41;7.17;;;2.50;;
22665;SDS011;11499;49.486;11.104;2023-03-15T09:28:07;5.73;;;2.50;;
22665;SDS011;11499;49.486;11.104;2023-03-15T09:30:35;4.40;;;2.37;;
22665;SDS011;11499;49.486;11.104;2023-03-15T09:33:01;5.40;;;2.20;;
22665;SDS011;11499;49.486;11.104;2023-03-15T09:35:27;6.50;;;2.40;;
22665;SDS011;11499;49.486;11.104;2023-03-15T09:37:53;5.80;;;2.03;;
22665;SDS011;11499;49.486;11.104;2023-03-15T09:48:07;6.67;;;2.03;;
22665;SDS011;11499;49.486;11.104;2023-03-15T09:50:36;8.77;;;2.17;;
22665;SDS011;11499;49.486;11.104;2023-03-15T09:55:42;5.10;;;2.37;;
22665;SDS011;11499;49.486;11.104;2023-03-15T09:58:15;3.53;;;1.87;;
22665;SDS011;11499;49.486;11.104;2023-03-15T10:00:46;6.40;;;1.93;;
22665;SDS011;11499;49.486;11.104;2023-03-15T10:03:20;9.13;;;2.00;;
22665;SDS011;11499;49.486;11.104;2023-03-15T10:05:54;5.00;;;2.40;;
22665;SDS011;11499;49.486;11.104;2023-03-15T10:08:24;4.27;;;2.30;;
22665;SDS011;11499;49.486;11.104;2023-03-15T10:13:42;4.03;;;2.40;;
22665;SDS011;11499;49.486;11.104;2023-03-15T10:16:31;3.73;;;1.87;;
22665;SDS011;11499;49.486;11.104;2023-03-15T10:24:51;4.53;;;2.30;;
22665;SDS011;11499;49.486;11.104;2023-03-15T10:30:23;5.30;;;2.10;;
22665;SDS011;11499;49.486;11.104;2023-03-15T10:32:57;6.73;;;2.50;;
22665;SDS011;11499;49.486;11.104;2023-03-15T10:35:42;6.73;;;2.60;;
22665;SDS011;11499;49.486;11.104;2023-03-15T10:39:23;4.50;;;2.60;;
22665;SDS011;11499;49.486;11.104;2023-03-15T10:41:49;3.97;;;2.17;;
22665;SDS011;11499;49.486;11.104;2023-03-15T10:44:19;5.40;;;2.13;;
22665;SDS011;11499;49.486;11.104;2023-03-15T10:49:37;7.43;;;2.50;;
22665;SDS011;11499;49.486;11.104;2023-03-15T10:52:04;3.77;;;2.13;;
22665;SDS011;11499;49.486;11.104;2023-03-15T10:54:31;4.63;;;1.97;;
22665;SDS011;11499;49.486;11.104;2023-03-15T10:57:03;5.10;;;2.53;;
22665;SDS011;11499;49.486;11.104;2023-03-15T10:59:32;5.17;;;2.30;;
22665;SDS011;11499;49.486;11.104;2023-03-15T11:07:26;3.73;;;1.60;;
22665;SDS011;11499;49.486;11.104;2023-03-15T11:09:53;4.13;;;2.00;;
22665;SDS011;11499;49.486;11.104;2023-03-15T11:12:26;6.10;;;2.07;;
22665;SDS011;11499;49.486;11.104;2023-03-15T11:15:09;2.30;;;1.73;;
22665;SDS011;11499;49.486;11.104;2023-03-15T11:17:41;7.20;;;1.90;;
22665;SDS011;11499;49.486;11.104;2023-03-15T11:20:25;6.33;;;2.07;;
22665;SDS011;11499;49.486;11.104;2023-03-15T11:22:54;5.37;;;2.00;;
22665;SDS011;11499;49.486;11.104;2023-03-15T11:25:21;4.33;;;1.90;;
22665;SDS011;11499;49.486;11.104;2023-03-15T11:30:48;3.97;;;2.23;;
22665;SDS011;11499;49.486;11.104;2023-03-15T11:33:21;5.23;;;2.30;;
22665;SDS011;11499;49.486;11.104;2023-03-15T11:36:13;4.83;;;2.23;;
22665;SDS011;11499;49.486;11.104;2023-03-15T11:38:43;4.03;;;1.90;;
22665;SDS011;11499;49.486;11.104;2023-03-15T11:41:10;4.17;;;2.30;;
22665;SDS011;11499;49.486;11.104;2023-03-15T11:44:07;3.07;;;1.87;;
22665;SDS011;11499;49.486;11.104;2023-03-15T11:46:49;4.87;;;2.40;;
22665;SDS011;11499;49.486;11.104;2023-03-15T11:52:15;5.13;;;2.40;;
22665;SDS011;11499;49.486;11.104;2023-03-15T11:54:43;5.00;;;1.80;;
22665;SDS011;11499;49.486;11.104;2023-03-15T11:59:45;3.00;;;1.53;;
22665;SDS011;11499;49.486;11.104;2023-03-15T12:15:00;2.97;;;1.80;;
22665;SDS011;11499;49.486;11.104;2023-03-15T12:20:04;3.13;;;2.00;;
22665;SDS011;11499;49.486;11.104;2023-03-15T12:24:45;1.93;;;1.20;;
22665;SDS011;11499;49.486;11.104;2023-03-15T12:27:19;2.57;;;1.53;;
22665;SDS011;11499;49.486;11.104;2023-03-15T12:29:45;3.43;;;1.57;;
22665;SDS011;11499;49.486;11.104;2023-03-15T12:32:13;2.70;;;1.30;;
22665;SDS011;11499;49.486;11.104;2023-03-15T12:34:48;2.03;;;1.20;;
22665;SDS011;11499;49.486;11.104;2023-03-15T12:39:58;3.50;;;1.40;;
22665;SDS011;11499;49.486;11.104;2023-03-15T12:45:30;2.33;;;1.30;;
22665;SDS011;11499;49.486;11.104;2023-03-15T12:53:28;2.23;;;1.63;;
22665;SDS011;11499;49.486;11.104;2023-03-15T12:58:47;2.57;;;1.50;;
22665;SDS011;11499;49.486;11.104;2023-03-15T13:01:18;3.77;;;1.70;;
22665;SDS011;11499;49.486;11.104;2023-03-15T13:03:43;2.97;;;1.47;;
22665;SDS011;11499;49.486;11.104;2023-03-15T13:12:04;3.20;;;1.50;;
22665;SDS011;11499;49.486;11.104;2023-03-15T13:15:28;3.27;;;1.60;;
22665;SDS011;11499;49.486;11.104;2023-03-15T13:18:17;2.77;;;1.67;;
22665;SDS011;11499;49.486;11.104;2023-03-15T13:21:08;3.40;;;1.83;;
22665;SDS011;11499;49.486;11.104;2023-03-15T13:23:55;1.40;;;1.30;;
22665;SDS011;11499;49.486;11.104;2023-03-15T13:26:26;2.27;;;1.53;;
22665;SDS011;11499;49.486;11.104;2023-03-15T13:29:00;1.30;;;1.10;;
22665;SDS011;11499;49.486;11.104;2023-03-15T13:31:35;2.27;;;1.20;;
22665;SDS011;11499;49.486;11.104;2023-03-15T13:34:12;2.17;;;1.30;;
22665;SDS011;11499;49.486;11.104;2023-03-15T13:36:41;3.13;;;1.50;;
22665;SDS011;11499;49.486;11.104;2023-03-15T13:42:17;2.30;;;1.10;;
22665;SDS011;11499;49.486;11.104;2023-03-15T13:44:44;2.83;;;1.53;;
22665;SDS011;11499;49.486;11.104;2023-03-15T13:47:19;2.60;;;1.50;;
22665;SDS011;11499;49.486;11.104;2023-03-15T13:49:50;4.00;;;1.30;;
22665;SDS011;11499;49.486;11.104;2023-03-15T13:52:16;2.27;;;1.37;;
22665;SDS011;11499;49.486;11.104;2023-03-15T13:54:42;2.03;;;1.23;;
22665;SDS011;11499;49.486;11.104;2023-03-15T13:57:16;2.03;;;1.40;;
22665;SDS011;11499;49.486;11.104;2023-03-15T13:59:49;2.53;;;1.53;;
22665;SDS011;11499;49.486;11.104;2023-03-15T14:02:20;2.77;;;1.57;;
22665;SDS011;11499;49.486;11.104;2023-03-15T14:10:24;1.63;;;1.20;;
22665;SDS011;11499;49.486;11.104;2023-03-15T14:13:07;2.43;;;1.53;;
22665;SDS011;11499;49.486;11.104;2023-03-15T14:15:47;2.97;;;1.63;;
22665;SDS011;11499;49.486;11.104;2023-03-15T14:18:16;2.87;;;1.50;;
22665;SDS011;11499;49.486;11.104;2023-03-15T14:20:55;2.87;;;1.40;;
22665;SDS011;11499;49.486;11.104;2023-03-15T14:23:30;5.20;;;1.53;;
22665;SDS011;11499;49.486;11.104;2023-03-15T14:28:31;2.10;;;1.50;;
22665;SDS011;11499;49.486;11.104;2023-03-15T14:33:38;2.83;;;1.67;;
22665;SDS011;11499;49.486;11.104;2023-03-15T14:36:07;2.30;;;1.40;;
22665;SDS011;11499;49.486;11.104;2023-03-15T14:38:49;2.10;;;1.43;;
22665;SDS011;11499;49.486;11.104;2023-03-15T14:43:42;2.63;;;1.70;;
22665;SDS011;11499;49.486;11.104;2023-03-15T14:46:08;2.07;;;1.50;;
22665;SDS011;11499;49.486;11.104;2023-03-15T14:48:33;2.50;;;1.50;;
22665;SDS011;11499;49.486;11.104;2023-03-15T14:50:59;2.17;;;1.60;;
22665;SDS011;11499;49.486;11.104;2023-03-15T14:53:25;1.63;;;1.50;;
22665;SDS011;11499;49.486;11.104;2023-03-15T14:57:37;2.03;;;1.57;;
22665;SDS011;11499;49.486;11.104;2023-03-15T15:00:03;1.83;;;1.50;;
22665;SDS011;11499;49.486;11.104;2023-03-15T15:02:29;1.70;;;1.40;;
22665;SDS011;11499;49.486;11.104;2023-03-15T15:04:57;1.83;;;1.50;;
22665;SDS011;11499;49.486;11.104;2023-03-15T15:07:26;2.37;;;1.80;;
22665;SDS011;11499;49.486;11.104;2023-03-15T15:09:52;1.70;;;1.40;;
22665;SDS011;11499;49.486;11.104;2023-03-15T15:12:17;2.13;;;1.90;;
22665;SDS011;11499;49.486;11.104;2023-03-15T15:14:43;1.57;;;1.47;;
22665;SDS011;11499;49.486;11.104;2023-03-15T15:17:09;2.43;;;1.80;;
22665;SDS011;11499;49.486;11.104;2023-03-15T15:19:35;1.70;;;1.40;;
22665;SDS011;11499;49.486;11.104;2023-03-15T15:24:16;2.17;;;1.70;;
22665;SDS011;11499;49.486;11.104;2023-03-15T15:26:43;2.00;;;1.43;;
22665;SDS011;11499;49.486;11.104;2023-03-15T15:29:10;1.77;;;1.50;;
22665;SDS011;11499;49.486;11.104;2023-03-15T15:31:40;2.00;;;1.57;;
22665;SDS011;11499;49.486;11.104;2023-03-15T15:34:06;4.07;;;1.73;;
22665;SDS011;11499;49.486;11.104;2023-03-15T15:36:32;2.13;;;1.93;;
22665;SDS011;11499;49.486;11.104;2023-03-15T15:39:00;2.17;;;1.50;;
22665;SDS011;11499;49.486;11.104;2023-03-15T15:41:30;3.47;;;1.90;;
22665;SDS011;11499;49.486;11.104;2023-03-15T15:43:56;1.53;;;1.43;;
22665;SDS011;11499;49.486;11.104;2023-03-15T15:46:22;2.53;;;1.67;;
22665;SDS011;11499;49.486;11.104;2023-03-15T15:50:46;2.13;;;1.70;;
22665;SDS011;11499;49.486;11.104;2023-03-15T15:53:12;2.87;;;1.87;;
22665;SDS011;11499;49.486;11.104;2023-03-15T15:55:40;2.60;;;1.60;;
22665;SDS011;11499;49.486;11.104;2023-03-15T15:58:08;2.67;;;2.00;;
22665;SDS011;11499;49.486;11.104;2023-03-15T16:00:35;2.17;;;1.97;;
22665;SDS011;11499;49.486;11.104;2023-03-15T16:03:01;2.53;;;1.77;;
22665;SDS011;11499;49.486;11.104;2023-03-15T16:05:27;2.23;;;1.80;;
22665;SDS011;11499;49.486;11.104;2023-03-15T16:07:54;2.33;;;1.80;;
22665;SDS011;11499;49.486;11.104;2023-03-15T16:10:23;3.40;;;1.93;;
22665;SDS011;11499;49.486;11.104;2023-03-15T16:12:51;3.23;;;1.67;;
22665;SDS011;11499;49.486;11.104;2023-03-15T16:16:58;2.70;;;1.50;;
22665;SDS011;11499;49.486;11.104;2023-03-15T16:19:23;2.00;;;1.80;;
22665;SDS011;11499;49.486;11.104;2023-03-15T16:21:49;2.00;;;1.60;;
22665;SDS011;11499;49.486;11.104;2023-03-15T16:24:28;1.60;;;1.50;;
22665;SDS011;11499;49.486;11.104;2023-03-15T16:26:59;2.10;;;1.70;;
22665;SDS011;11499;49.486;11.104;2023-03-15T16:29:30;2.00;;;1.60;;
22665;SDS011;11499;49.486;11.104;2023-03-15T16:32:00;2.13;;;1.63;;
22665;SDS011;11499;49.486;11.104;2023-03-15T16:34:26;1.53;;;1.43;;
22665;SDS011;11499;49.486;11.104;2023-03-15T16:36:51;2.23;;;1.80;;
22665;SDS011;11499;49.486;11.104;2023-03-15T16:42:18;0.80;;;0.80;;
22665;SDS011;11499;49.486;11.104;2023-03-15T16:44:44;1.60;;;1.10;;
22665;SDS011;11499;49.486;11.104;2023-03-15T16:47:10;1.17;;;1.07;;
22665;SDS011;11499;49.486;11.104;2023-03-15T16:49:35;0.90;;;0.90;;
22665;SDS011;11499;49.486;11.104;2023-03-15T16:52:02;1.40;;;1.30;;
22665;SDS011;11499;49.486;11.104;2023-03-15T16:54:30;1.63;;;1.50;;
22665;SDS011;11499;49.486;11.104;2023-03-15T16:56:57;3.53;;;1.50;;
22665;SDS011;11499;49.486;11.104;2023-03-15T16:59:25;4.10;;;1.60;;
22665;SDS011;11499;49.486;11.104;2023-03-15T17:01:51;1.70;;;1.57;;
22665;SDS011;11499;49.486;11.104;2023-03-15T17:04:17;1.70;;;1.60;;
22665;SDS011;11499;49.486;11.104;2023-03-15T17:08:46;2.50;;;1.83;;
22665;SDS011;11499;49.486;11.104;2023-03-15T17:11:38;2.23;;;1.73;;
22665;SDS011;11499;49.486;11.104;2023-03-15T17:14:06;2.07;;;1.87;;
22665;SDS011;11499;49.486;11.104;2023-03-15T17:16:41;1.60;;;1.50;;
22665;SDS011;11499;49.486;11.104;2023-03-15T17:19:10;1.97;;;1.80;;
22665;SDS011;11499;49.486;11.104;2023-03-15T17:21:37;2.80;;;1.90;;
22665;SDS011;11499;49.486;11.104;2023-03-15T17:24:03;2.00;;;1.80;;